Portada
METAR-TAF:

METAR-TAF

Aeroports :

Mahajanga, Madagascar

latitud: 15-40S, longitud: 046-21E, altitud: 26 m

Observació

L'informe es va fer fa 42 minuts, a les 00:00 UTC
Vent 5 kt del Est
Temperatura 25°C
Humitat 94%
Pressió 1009 hPa
Visibilitat 10 km o més
Escasses núvols a una alçada de 2000 ft
Núvols disperses a una alçada de 4000 ft

METAR: FMNM 040000Z 08005KT 9999 FEW020 SCT040 25/24 Q1009

Hora: 03:42 (00:42 UTC)

Pronòstic

L'informe es va fer fa 1 hora i 42 minuts, a les 23:00 UTC
Pronòstic vàlid del 04 a les 00 UTC al 04 a les 24 UTC
Vent 5 kt del Est/Sud-Est
Visibilitat 10 km o més
Núvols disperses a una alçada de 2000 ft, Cumulonimbus.
Cel ennuvolat a una alçada de 4000 ft
Probabilitat 30% :
Temporalment
l' 04 a les 00 UTC al 04 a les 05 UTC
Visibilitat: 4000 m
tempesta, pluja

TAF: FMNM 032300Z 0400/0424 12005KT 9999 SCT020CB BKN040 PROB30 TEMPO 0400/0405 4000 TSRA

Observacions i pronòstics meteorològics de més de 4000 aeroports (METAR i TAF).

Les estacions disponibles són els punts grocs i vermells al mapa.

Posi el ratolí al punt desitjat per veure el nom de l'estació.

Feu clic per veure les observacions i els pronòstics meteorològics.

Per canviar el mapa: feu clic els botons verds amb una creu de color negre per apropar; al botó verd amb un guió per allunyar la imatge; o en les fletxes verdes per a mapes adjacents.


METAR-TAF: